createdAt,value
2017-09-25T00:01:27.397Z,1008.27
2017-09-25T00:02:27.409Z,1008.29
2017-09-25T00:04:20.468Z,1008.26
2017-09-25T00:05:20.431Z,1008.25
2017-09-25T00:07:13.524Z,1008.22
2017-09-25T00:08:13.477Z,1008.28
2017-09-25T00:10:06.502Z,1008.23
2017-09-25T00:11:06.528Z,1008.25
2017-09-25T00:12:59.589Z,1008.25
2017-09-25T00:13:59.561Z,1008.27
2017-09-25T00:15:52.585Z,1008.27
2017-09-25T00:16:52.594Z,1008.29
2017-09-25T00:18:45.649Z,1008.27
2017-09-25T00:19:45.627Z,1008.33
2017-09-25T00:21:38.667Z,1008.33
2017-09-25T00:22:38.678Z,1008.30
2017-09-25T00:24:31.753Z,1008.30
2017-09-25T00:25:31.705Z,1008.27
2017-09-25T00:27:24.723Z,1008.31
2017-09-25T00:28:24.745Z,1008.28
2017-09-25T00:30:17.790Z,1008.30
2017-09-25T00:31:17.766Z,1008.31
2017-09-25T00:33:10.964Z,1008.31
2017-09-25T00:34:10.805Z,1008.30
2017-09-25T00:36:04.292Z,1008.26
2017-09-25T00:37:03.839Z,1008.25
2017-09-25T00:38:56.893Z,1008.24
2017-09-25T00:39:56.881Z,1008.25
2017-09-25T00:41:49.895Z,1008.21
2017-09-25T00:42:49.923Z,1008.17
2017-09-25T00:44:54.820Z,1008.17
2017-09-25T00:45:54.819Z,1008.16
2017-09-25T00:47:47.836Z,1008.17
2017-09-25T00:48:47.958Z,1008.18
2017-09-25T00:50:40.899Z,1008.15
2017-09-25T00:51:40.884Z,1008.16
2017-09-25T00:53:33.910Z,1008.17
2017-09-25T00:54:33.927Z,1008.21
2017-09-25T00:56:27.123Z,1008.16
2017-09-25T00:57:26.960Z,1008.17
2017-09-25T00:59:20.026Z,1008.15
2017-09-25T01:00:20.137Z,1008.13
2017-09-25T01:02:13.022Z,1008.19
2017-09-25T01:03:13.051Z,1008.17
2017-09-25T01:05:06.618Z,1008.16
2017-09-25T01:06:06.582Z,1008.18
2017-09-25T01:08:00.620Z,1008.14
2017-09-25T01:09:00.599Z,1008.15
2017-09-25T01:10:53.660Z,1008.14
2017-09-25T01:11:53.668Z,1008.16
2017-09-25T01:13:46.707Z,1008.15
2017-09-25T01:14:46.673Z,1008.14
2017-09-25T01:16:51.585Z,1008.11
2017-09-25T01:17:51.561Z,1008.12
2017-09-25T01:19:44.622Z,1008.15
2017-09-25T01:20:44.645Z,1008.14
2017-09-25T01:22:37.618Z,1008.11
2017-09-25T01:23:37.637Z,1008.13
2017-09-25T01:25:30.715Z,1008.11
2017-09-25T01:26:30.683Z,1008.09
2017-09-25T01:28:23.704Z,1008.08
2017-09-25T01:29:23.717Z,1008.13
2017-09-25T01:31:16.775Z,1008.12
2017-09-25T01:32:16.744Z,1008.10
2017-09-25T01:34:09.767Z,1008.18
2017-09-25T01:35:09.786Z,1008.14
2017-09-25T01:37:02.843Z,1008.14
2017-09-25T01:38:02.805Z,1008.15
2017-09-25T01:39:55.841Z,1008.14
2017-09-25T01:40:55.989Z,1008.16
2017-09-25T01:42:48.896Z,1008.10
2017-09-25T01:43:48.881Z,1008.10
2017-09-25T01:45:41.917Z,1008.06
2017-09-25T01:46:41.920Z,1008.07
2017-09-25T01:48:34.974Z,1007.98
2017-09-25T01:49:34.953Z,1008.00
2017-09-25T01:51:27.996Z,1007.94
2017-09-25T01:52:27.986Z,1007.91
2017-09-25T01:54:20.999Z,1007.92
2017-09-25T01:55:21.015Z,1007.88
2017-09-25T01:57:14.085Z,1007.85
2017-09-25T01:58:14.077Z,1007.85
2017-09-25T02:00:07.095Z,1007.84
2017-09-25T02:01:07.102Z,1007.84
2017-09-25T02:03:00.175Z,1007.81
2017-09-25T02:04:00.116Z,1007.80
2017-09-25T02:05:54.001Z,1007.80
2017-09-25T02:06:54.015Z,1007.85
2017-09-25T02:08:47.064Z,1007.85
2017-09-25T02:09:47.041Z,1007.86
2017-09-25T02:11:40.059Z,1007.84
2017-09-25T02:12:40.082Z,1007.84
2017-09-25T02:14:33.128Z,1007.79
2017-09-25T02:15:33.120Z,1007.79
2017-09-25T02:17:26.147Z,1007.75
2017-09-25T02:18:26.160Z,1007.71
2017-09-25T02:20:19.214Z,1007.74
2017-09-25T02:21:19.196Z,1007.71
2017-09-25T02:23:12.246Z,1007.74
2017-09-25T02:24:12.219Z,1007.73
2017-09-25T02:26:05.267Z,1007.78
2017-09-25T02:27:05.288Z,1007.79
2017-09-25T02:28:58.322Z,1007.76
2017-09-25T02:29:58.316Z,1007.75
2017-09-25T02:31:51.316Z,1007.76
2017-09-25T02:32:51.335Z,1007.76
2017-09-25T02:34:45.415Z,1007.79
2017-09-25T02:35:45.358Z,1007.74
2017-09-25T02:37:39.391Z,1007.79
2017-09-25T02:38:39.391Z,1007.73
2017-09-25T02:40:33.450Z,1007.66
2017-09-25T02:41:33.414Z,1007.68
2017-09-25T02:43:26.467Z,1007.63
2017-09-25T02:44:26.479Z,1007.63
2017-09-25T02:46:19.654Z,1007.61
2017-09-25T02:47:19.491Z,1007.61
2017-09-25T02:49:12.566Z,1007.62
2017-09-25T02:50:12.554Z,1007.63
2017-09-25T02:52:05.542Z,1007.60
2017-09-25T02:53:05.550Z,1007.61
2017-09-25T02:54:58.622Z,1007.59
2017-09-25T02:55:58.590Z,1007.62
2017-09-25T02:58:03.460Z,1007.59
2017-09-25T02:59:03.474Z,1007.57
2017-09-25T03:00:56.546Z,1007.56
2017-09-25T03:01:56.511Z,1007.59
2017-09-25T03:03:49.526Z,1007.57
2017-09-25T03:04:49.542Z,1007.56
2017-09-25T03:06:42.731Z,1007.54
2017-09-25T03:07:42.579Z,1007.53
2017-09-25T03:09:35.615Z,1007.52
2017-09-25T03:10:35.630Z,1007.52
2017-09-25T03:12:28.690Z,1007.52
2017-09-25T03:13:28.645Z,1007.45
2017-09-25T03:15:21.668Z,1007.47
2017-09-25T03:16:21.684Z,1007.47
2017-09-25T03:18:14.751Z,1007.48
2017-09-25T03:19:14.737Z,1007.50
2017-09-25T03:21:07.779Z,1007.48
2017-09-25T03:22:07.755Z,1007.48
2017-09-25T03:24:00.785Z,1007.45
2017-09-25T03:25:00.796Z,1007.44
2017-09-25T03:26:53.867Z,1007.42
2017-09-25T03:27:53.821Z,1007.43
2017-09-25T03:29:46.905Z,1007.43
2017-09-25T03:30:46.999Z,1007.46
2017-09-25T03:32:39.956Z,1007.43
2017-09-25T03:33:39.929Z,1007.43
2017-09-25T03:35:32.965Z,1007.44
2017-09-25T03:36:32.967Z,1007.45
2017-09-25T03:38:26.009Z,1007.42
2017-09-25T03:39:25.997Z,1007.42
2017-09-25T03:41:19.004Z,1007.41
2017-09-25T03:42:19.037Z,1007.43
2017-09-25T03:44:12.076Z,1007.48
2017-09-25T03:45:12.047Z,1007.50
2017-09-25T03:47:05.266Z,1007.49
2017-09-25T03:48:05.092Z,1007.47
2017-09-25T03:49:58.121Z,1007.52
2017-09-25T03:50:58.117Z,1007.49
2017-09-25T03:52:51.635Z,1007.53
2017-09-25T03:53:51.153Z,1007.50
2017-09-25T03:55:44.168Z,1007.48
2017-09-25T03:56:44.184Z,1007.49
2017-09-25T03:58:37.250Z,1007.49
2017-09-25T03:59:37.233Z,1007.46
2017-09-25T04:01:30.742Z,1007.46
2017-09-25T04:02:30.750Z,1007.46
2017-09-25T04:04:23.821Z,1007.45
2017-09-25T04:05:23.790Z,1007.42
2017-09-25T04:07:16.813Z,1007.48
2017-09-25T04:08:16.827Z,1007.46
2017-09-25T04:10:09.881Z,1007.48
2017-09-25T04:11:09.855Z,1007.52
2017-09-25T04:13:02.890Z,1007.51
2017-09-25T04:14:02.900Z,1007.55
2017-09-25T04:15:55.952Z,1007.51
2017-09-25T04:16:55.922Z,1007.56
2017-09-25T04:18:49.020Z,1007.53
2017-09-25T04:19:48.958Z,1007.47
2017-09-25T04:21:53.825Z,1007.47
2017-09-25T04:22:53.837Z,1007.43
2017-09-25T04:24:46.896Z,1007.49
2017-09-25T04:25:46.862Z,1007.47
2017-09-25T04:27:39.889Z,1007.51
2017-09-25T04:28:39.903Z,1007.50
2017-09-25T04:30:32.961Z,1007.51
2017-09-25T04:31:32.946Z,1007.51
2017-09-25T04:33:26.089Z,1007.51
2017-09-25T04:34:25.971Z,1007.52
2017-09-25T04:36:19.034Z,1007.51
2017-09-25T04:37:19.020Z,1007.49
2017-09-25T04:39:12.042Z,1007.53
2017-09-25T04:40:12.066Z,1007.53
2017-09-25T04:42:05.104Z,1007.56
2017-09-25T04:43:05.087Z,1007.56
2017-09-25T04:44:58.135Z,1007.57
2017-09-25T04:45:58.110Z,1007.59
2017-09-25T04:47:51.150Z,1007.63
2017-09-25T04:48:51.151Z,1007.62
2017-09-25T04:50:44.216Z,1007.60
2017-09-25T04:51:44.174Z,1007.62
2017-09-25T04:53:37.198Z,1007.58
2017-09-25T04:54:37.219Z,1007.57
2017-09-25T04:56:30.260Z,1007.56
2017-09-25T04:57:30.247Z,1007.51
2017-09-25T04:59:23.289Z,1007.49
2017-09-25T05:00:23.291Z,1007.51
2017-09-25T05:02:16.344Z,1007.56
2017-09-25T05:03:16.330Z,1007.54
2017-09-25T05:05:09.458Z,1007.55
2017-09-25T05:06:09.353Z,1007.57
2017-09-25T05:08:02.394Z,1007.56
2017-09-25T05:09:02.386Z,1007.58
2017-09-25T05:10:55.390Z,1007.58
2017-09-25T05:11:55.565Z,1007.59
2017-09-25T05:13:48.472Z,1007.56
2017-09-25T05:14:48.432Z,1007.52
2017-09-25T05:16:42.496Z,1007.55
2017-09-25T05:17:41.488Z,1007.57
2017-09-25T05:19:34.485Z,1007.62
2017-09-25T05:20:34.496Z,1007.63
2017-09-25T05:22:40.428Z,1007.64
2017-09-25T05:23:40.410Z,1007.63
2017-09-25T05:25:33.414Z,1007.68
2017-09-25T05:26:33.429Z,1007.72
2017-09-25T05:28:26.488Z,1007.73
2017-09-25T05:29:26.477Z,1007.71
2017-09-25T05:31:20.499Z,1007.72
2017-09-25T05:32:20.491Z,1007.69
2017-09-25T05:34:13.543Z,1007.73
2017-09-25T05:35:13.530Z,1007.74
2017-09-25T05:37:06.556Z,1007.78
2017-09-25T05:38:06.568Z,1007.79
2017-09-25T05:39:59.631Z,1007.84
2017-09-25T05:40:59.603Z,1007.81
2017-09-25T05:42:52.664Z,1007.83
2017-09-25T05:43:52.631Z,1007.83
2017-09-25T05:45:45.658Z,1007.83
2017-09-25T05:46:45.661Z,1007.80
2017-09-25T05:48:38.713Z,1007.76
2017-09-25T05:49:38.699Z,1007.82
2017-09-25T05:51:32.707Z,1007.79
2017-09-25T05:52:32.720Z,1007.81
2017-09-25T05:54:25.789Z,1007.81
2017-09-25T05:55:25.753Z,1007.87
2017-09-25T05:57:30.608Z,1007.90
2017-09-25T05:58:30.629Z,1007.92
2017-09-25T06:00:23.710Z,1007.89
2017-09-25T06:01:23.847Z,1007.88
2017-09-25T06:03:16.702Z,1007.90
2017-09-25T06:04:16.706Z,1007.93
2017-09-25T06:06:09.787Z,1007.91
2017-09-25T06:07:09.740Z,1007.91
2017-09-25T06:09:03.801Z,1007.97
2017-09-25T06:10:03.785Z,1007.94
2017-09-25T06:11:56.811Z,1007.95
2017-09-25T06:12:56.807Z,1007.94
2017-09-25T06:14:49.862Z,1007.94
2017-09-25T06:15:49.862Z,1007.89
2017-09-25T06:17:42.858Z,1007.91
2017-09-25T06:18:42.878Z,1007.90
2017-09-25T06:20:36.919Z,1007.89
2017-09-25T06:21:36.905Z,1007.90
2017-09-25T06:23:29.916Z,1007.86
2017-09-25T06:24:29.937Z,1007.91
2017-09-25T06:26:22.994Z,1007.91
2017-09-25T06:27:22.976Z,1007.88
2017-09-25T06:29:16.000Z,1007.89
2017-09-25T06:30:16.007Z,1007.86
2017-09-25T06:32:09.069Z,1007.83
2017-09-25T06:33:09.046Z,1007.87
2017-09-25T06:35:02.093Z,1007.87
2017-09-25T06:36:02.088Z,1007.87
2017-09-25T06:37:55.096Z,1007.88
2017-09-25T06:38:55.118Z,1007.87
2017-09-25T06:40:48.174Z,1007.91
2017-09-25T06:41:48.150Z,1007.90
2017-09-25T06:43:41.187Z,1007.90
2017-09-25T06:44:41.324Z,1007.91
2017-09-25T06:46:34.246Z,1007.91
2017-09-25T06:47:34.244Z,1007.93
2017-09-25T06:49:27.256Z,1007.96
2017-09-25T06:50:27.274Z,1007.95
2017-09-25T06:52:20.332Z,1007.95
2017-09-25T06:53:20.303Z,1007.98
2017-09-25T06:55:13.333Z,1008.03
2017-09-25T06:56:13.356Z,1008.03
2017-09-25T06:58:06.441Z,1008.01
2017-09-25T06:59:06.455Z,1007.98
2017-09-25T07:00:59.567Z,1008.00
2017-09-25T07:01:59.460Z,1007.98
2017-09-25T07:03:52.538Z,1008.01
2017-09-25T07:04:52.521Z,1008.04
2017-09-25T07:06:45.582Z,1008.01
2017-09-25T07:07:45.538Z,1008.02
2017-09-25T07:09:38.564Z,1007.97
2017-09-25T07:10:38.580Z,1007.96
2017-09-25T07:12:32.651Z,1007.95
2017-09-25T07:13:32.616Z,1007.95
2017-09-25T07:15:25.630Z,1007.99
2017-09-25T07:16:25.637Z,1007.95
2017-09-25T07:18:18.699Z,1007.99
2017-09-25T07:19:18.673Z,1008.04
2017-09-25T07:21:11.705Z,1008.05
2017-09-25T07:22:11.716Z,1008.08
2017-09-25T07:24:04.831Z,1007.98
2017-09-25T07:25:04.807Z,1007.98
2017-09-25T07:26:57.845Z,1007.99
2017-09-25T07:27:57.856Z,1007.99
2017-09-25T07:29:50.909Z,1008.00
2017-09-25T07:30:50.886Z,1007.99
2017-09-25T07:32:44.908Z,1007.98
2017-09-25T07:33:44.917Z,1007.97
2017-09-25T07:35:37.978Z,1007.97
2017-09-25T07:36:37.951Z,1007.98
2017-09-25T07:38:31.033Z,1007.96
2017-09-25T07:39:30.996Z,1007.90
2017-09-25T07:41:24.031Z,1007.96
2017-09-25T07:42:24.046Z,1008.00
2017-09-25T07:44:29.117Z,1008.03
2017-09-25T07:45:28.972Z,1008.05
2017-09-25T07:47:22.021Z,1008.04
2017-09-25T07:48:22.027Z,1008.02
2017-09-25T07:50:15.080Z,1008.19
2017-09-25T07:51:15.052Z,1008.31
2017-09-25T07:53:08.075Z,1008.19
2017-09-25T07:54:08.130Z,1008.16
2017-09-25T07:56:01.163Z,1008.11
2017-09-25T07:57:01.142Z,1008.11
2017-09-25T07:58:54.153Z,1008.11
2017-09-25T07:59:54.167Z,1008.08
2017-09-25T08:01:47.240Z,1007.98
2017-09-25T08:02:47.200Z,1008.00
2017-09-25T08:04:52.225Z,1008.00
2017-09-25T08:05:52.099Z,1008.00
2017-09-25T08:07:45.162Z,1007.97
2017-09-25T08:08:45.135Z,1007.96
2017-09-25T08:10:38.231Z,1007.97
2017-09-25T08:11:38.176Z,1007.96
2017-09-25T08:13:31.200Z,1007.94
2017-09-25T08:14:31.212Z,1007.99
2017-09-25T08:16:25.270Z,1008.02
2017-09-25T08:17:25.229Z,1007.99
2017-09-25T08:19:18.265Z,1008.06
2017-09-25T08:20:18.277Z,1008.03
2017-09-25T08:22:11.370Z,1008.09
2017-09-25T08:23:11.317Z,1008.07
2017-09-25T08:25:17.204Z,1008.04
2017-09-25T08:26:17.229Z,1008.03
2017-09-25T08:28:10.277Z,1008.01
2017-09-25T08:29:10.254Z,1008.04
2017-09-25T08:31:03.286Z,1008.02
2017-09-25T08:32:03.300Z,1008.03
2017-09-25T08:33:56.350Z,1008.09
2017-09-25T08:34:56.326Z,1008.11
2017-09-25T08:36:49.371Z,1008.16
2017-09-25T08:37:49.365Z,1008.17
2017-09-25T08:39:42.540Z,1008.20
2017-09-25T08:40:42.405Z,1008.18
2017-09-25T08:42:35.482Z,1008.22
2017-09-25T08:43:35.446Z,1008.22
2017-09-25T08:45:40.321Z,1008.27
2017-09-25T08:46:40.352Z,1008.26
2017-09-25T08:48:33.399Z,1008.23
2017-09-25T08:49:33.382Z,1008.22
2017-09-25T08:51:26.405Z,1008.25
2017-09-25T08:52:26.414Z,1008.18
2017-09-25T08:54:19.472Z,1008.12
2017-09-25T08:55:19.453Z,1008.08
2017-09-25T08:57:12.472Z,1008.04
2017-09-25T08:58:12.493Z,1008.04
2017-09-25T09:00:05.560Z,1008.00
2017-09-25T09:01:05.543Z,1008.03
2017-09-25T09:03:10.461Z,1008.02
2017-09-25T09:04:10.479Z,1008.06
2017-09-25T09:06:03.545Z,1008.14
2017-09-25T09:07:03.522Z,1008.16
2017-09-25T09:08:03.547Z,1008.13
2017-09-25T09:09:03.565Z,1008.16
2017-09-25T09:10:03.703Z,1008.14
2017-09-25T09:11:03.643Z,1008.14
2017-09-25T09:12:03.633Z,1008.14
2017-09-25T09:13:03.652Z,1008.14
2017-09-25T09:14:03.671Z,1008.14
2017-09-25T09:15:03.704Z,1008.10
2017-09-25T09:16:03.733Z,1008.08
2017-09-25T09:17:03.746Z,1008.03
2017-09-25T09:18:03.762Z,1008.02
2017-09-25T09:19:03.801Z,1008.03
2017-09-25T09:20:03.797Z,1008.04
2017-09-25T09:21:03.818Z,1008.09
2017-09-25T09:22:03.846Z,1008.11
2017-09-25T09:23:03.878Z,1008.05
2017-09-25T09:24:03.885Z,1008.06
2017-09-25T09:25:03.908Z,1008.04
2017-09-25T09:26:03.964Z,1008.01
2017-09-25T09:27:03.953Z,1008.04
2017-09-25T09:28:03.999Z,1008.03
2017-09-25T09:29:03.997Z,1008.02
2017-09-25T09:30:04.071Z,1008.03
2017-09-25T09:31:04.051Z,1008.00
2017-09-25T09:32:04.062Z,1007.99
2017-09-25T09:33:04.103Z,1007.95
2017-09-25T09:34:04.128Z,1007.93
2017-09-25T09:35:04.134Z,1007.95
2017-09-25T09:36:04.156Z,1007.94
2017-09-25T09:37:04.175Z,1007.93
2017-09-25T09:38:04.231Z,1007.93
2017-09-25T09:39:04.214Z,1007.92
2017-09-25T09:40:04.241Z,1007.93
2017-09-25T09:41:04.272Z,1007.95
2017-09-25T09:42:04.296Z,1007.93
2017-09-25T09:43:04.308Z,1007.91
2017-09-25T09:44:04.337Z,1007.87
2017-09-25T09:45:04.356Z,1007.88
2017-09-25T09:46:04.375Z,1007.86
2017-09-25T09:47:04.408Z,1007.86
2017-09-25T09:48:04.416Z,1007.87
2017-09-25T09:49:04.450Z,1007.89
2017-09-25T09:50:04.456Z,1007.92
2017-09-25T09:51:04.484Z,1007.93
2017-09-25T09:52:04.512Z,1007.98
2017-09-25T09:53:04.515Z,1007.97
2017-09-25T09:54:04.536Z,1007.96
2017-09-25T09:55:04.557Z,1007.92
2017-09-25T09:56:04.582Z,1007.94
2017-09-25T09:57:04.599Z,1007.92
2017-09-25T09:58:04.635Z,1007.93
2017-09-25T09:59:04.677Z,1007.91
2017-09-25T10:00:04.669Z,1007.92
2017-09-25T10:01:04.683Z,1007.86
2017-09-25T10:02:04.753Z,1007.86
2017-09-25T10:03:04.728Z,1007.90
2017-09-25T10:04:04.755Z,1007.85
2017-09-25T10:05:04.776Z,1007.85
2017-09-25T10:06:04.820Z,1007.85
2017-09-25T10:07:04.820Z,1007.81
2017-09-25T10:08:04.870Z,1007.80
2017-09-25T10:09:04.867Z,1007.80
2017-09-25T10:10:04.898Z,1007.79
2017-09-25T10:11:04.909Z,1007.77
2017-09-25T10:12:04.937Z,1007.77
2017-09-25T10:13:04.970Z,1007.76
2017-09-25T10:14:04.978Z,1007.72
2017-09-25T10:15:04.999Z,1007.72
2017-09-25T10:16:05.018Z,1007.72
2017-09-25T10:17:05.041Z,1007.73
2017-09-25T10:18:05.064Z,1007.73
2017-09-25T10:19:05.081Z,1007.75
2017-09-25T10:20:05.107Z,1007.71
2017-09-25T10:21:05.122Z,1007.71
2017-09-25T10:22:05.160Z,1007.62
2017-09-25T10:23:05.182Z,1007.67
2017-09-25T10:24:05.198Z,1007.75
2017-09-25T10:25:05.215Z,1007.91
2017-09-25T10:26:05.244Z,1008.07
2017-09-25T10:27:05.266Z,1008.12
2017-09-25T10:28:05.299Z,1008.09
2017-09-25T10:29:05.302Z,1008.10
2017-09-25T10:30:05.336Z,1008.08
2017-09-25T10:31:05.346Z,1008.04
2017-09-25T10:32:05.385Z,1008.04
2017-09-25T10:33:05.390Z,1008.03
2017-09-25T10:34:05.413Z,1007.98
2017-09-25T10:35:05.471Z,1007.93
2017-09-25T10:36:05.461Z,1007.86
2017-09-25T10:37:05.485Z,1007.82
2017-09-25T10:38:05.502Z,1007.79
2017-09-25T10:39:05.526Z,1007.81
2017-09-25T10:40:05.552Z,1007.76
2017-09-25T10:41:05.576Z,1007.70
2017-09-25T10:42:05.594Z,1007.66
2017-09-25T10:43:05.616Z,1007.63
2017-09-25T10:44:05.639Z,1007.65
2017-09-25T10:45:05.663Z,1007.73
2017-09-25T10:46:05.690Z,1007.76
2017-09-25T10:47:05.758Z,1007.80
2017-09-25T10:48:05.742Z,1007.84
2017-09-25T10:49:05.779Z,1007.84
2017-09-25T10:50:05.772Z,1007.79
2017-09-25T10:51:05.814Z,1007.74
2017-09-25T10:52:05.818Z,1007.73
2017-09-25T10:53:05.906Z,1007.80
2017-09-25T10:54:05.867Z,1007.81
2017-09-25T10:55:05.886Z,1007.85
2017-09-25T10:56:05.914Z,1007.86
2017-09-25T10:57:05.961Z,1007.84
2017-09-25T10:58:05.963Z,1007.86
2017-09-25T10:59:05.990Z,1007.91
2017-09-25T11:00:06.004Z,1008.03
2017-09-25T11:01:06.023Z,1008.09
2017-09-25T11:02:06.081Z,1008.07
2017-09-25T11:03:06.068Z,1008.02
2017-09-25T11:04:06.093Z,1008.01
2017-09-25T11:05:06.129Z,1008.00
2017-09-25T11:06:06.139Z,1007.95
2017-09-25T11:07:06.175Z,1007.94
2017-09-25T11:08:06.192Z,1007.97
2017-09-25T11:09:06.205Z,1007.95
2017-09-25T11:10:06.232Z,1007.90
2017-09-25T11:11:06.250Z,1007.96
2017-09-25T11:12:06.269Z,1007.90
2017-09-25T11:13:06.298Z,1007.84
2017-09-25T11:14:06.316Z,1007.83
2017-09-25T11:15:06.358Z,1007.76
2017-09-25T11:16:06.368Z,1007.68
2017-09-25T11:17:06.388Z,1007.63
2017-09-25T11:18:06.409Z,1007.63
2017-09-25T11:19:06.490Z,1007.59
2017-09-25T11:20:06.485Z,1007.57
2017-09-25T11:21:06.486Z,1007.58
2017-09-25T11:22:06.508Z,1007.54
2017-09-25T11:23:06.526Z,1007.51
2017-09-25T11:24:06.548Z,1007.53
2017-09-25T11:25:06.572Z,1007.53
2017-09-25T11:26:06.591Z,1007.50
2017-09-25T11:27:06.620Z,1007.48
2017-09-25T11:28:06.640Z,1007.47
2017-09-25T11:29:06.661Z,1007.39
2017-09-25T11:30:06.684Z,1007.36
2017-09-25T11:31:06.716Z,1007.37
2017-09-25T11:32:06.744Z,1007.36
2017-09-25T11:33:06.758Z,1007.33
2017-09-25T11:34:06.798Z,1007.35
2017-09-25T11:35:06.795Z,1007.36
2017-09-25T11:36:06.853Z,1007.31
2017-09-25T11:37:06.842Z,1007.27
2017-09-25T11:38:06.869Z,1007.23
2017-09-25T11:39:06.881Z,1007.24
2017-09-25T11:40:06.921Z,1007.23
2017-09-25T11:41:06.924Z,1007.29
2017-09-25T11:42:06.976Z,1007.31
2017-09-25T11:43:06.971Z,1007.32
2017-09-25T11:44:07.003Z,1007.32
2017-09-25T11:45:07.017Z,1007.33
2017-09-25T11:46:07.044Z,1007.36
2017-09-25T11:47:07.058Z,1007.34
2017-09-25T11:48:07.087Z,1007.34
2017-09-25T11:49:07.109Z,1007.33
2017-09-25T11:50:07.151Z,1007.29
2017-09-25T11:51:07.152Z,1007.27
2017-09-25T11:52:07.171Z,1007.25
2017-09-25T11:53:07.189Z,1007.26
2017-09-25T11:54:07.221Z,1007.23
2017-09-25T11:55:07.254Z,1007.20
2017-09-25T11:56:07.265Z,1007.21
2017-09-25T11:57:07.285Z,1007.18
2017-09-25T11:58:07.303Z,1007.20
2017-09-25T11:59:07.338Z,1007.20
2017-09-25T12:00:07.348Z,1007.21
2017-09-25T12:01:07.373Z,1007.28
2017-09-25T12:02:07.390Z,1007.30
2017-09-25T12:03:07.411Z,1007.33
2017-09-25T12:04:07.444Z,1007.41
2017-09-25T12:05:07.484Z,1007.42
2017-09-25T12:06:07.510Z,1007.41
2017-09-25T12:07:07.504Z,1007.41
2017-09-25T12:08:07.519Z,1007.42
2017-09-25T12:09:07.542Z,1007.44
2017-09-25T12:10:07.590Z,1007.44
2017-09-25T12:11:07.603Z,1007.47
2017-09-25T12:12:07.628Z,1007.44
2017-09-25T12:13:07.638Z,1007.42
2017-09-25T12:14:07.666Z,1007.43
2017-09-25T12:15:07.684Z,1007.47
2017-09-25T12:16:07.704Z,1007.43
2017-09-25T12:17:07.724Z,1007.42
2017-09-25T12:18:07.757Z,1007.44
2017-09-25T12:19:07.773Z,1007.46
2017-09-25T12:20:07.795Z,1007.37
2017-09-25T12:21:07.825Z,1007.35
2017-09-25T12:22:07.841Z,1007.36
2017-09-25T12:23:07.858Z,1007.39
2017-09-25T12:24:07.880Z,1007.36
2017-09-25T12:25:07.901Z,1007.38
2017-09-25T12:26:07.962Z,1007.31
2017-09-25T12:27:07.954Z,1007.30
2017-09-25T12:28:07.980Z,1007.32
2017-09-25T12:29:08.001Z,1007.31
2017-09-25T12:30:08.013Z,1007.26
2017-09-25T12:31:08.058Z,1007.24
2017-09-25T12:32:08.064Z,1007.20
2017-09-25T12:33:08.084Z,1007.17
2017-09-25T12:34:08.118Z,1007.15
2017-09-25T12:35:08.135Z,1007.12
2017-09-25T12:36:08.160Z,1007.12
2017-09-25T12:37:08.175Z,1007.09
2017-09-25T12:38:08.191Z,1007.11
2017-09-25T12:39:08.232Z,1007.11
2017-09-25T12:40:08.271Z,1007.08
2017-09-25T12:41:08.262Z,1007.07
2017-09-25T12:42:08.289Z,1007.03
2017-09-25T12:43:08.310Z,1007.04
2017-09-25T12:44:08.336Z,1007.09
2017-09-25T12:45:08.352Z,1007.11
2017-09-25T12:46:08.380Z,1007.10
2017-09-25T12:47:08.398Z,1007.13
2017-09-25T12:48:08.418Z,1007.12
2017-09-25T12:49:08.472Z,1007.09
2017-09-25T12:50:08.462Z,1007.14
2017-09-25T12:51:08.501Z,1007.06
2017-09-25T12:52:08.508Z,1007.08
2017-09-25T12:53:08.528Z,1007.09
2017-09-25T12:54:08.552Z,1007.02
2017-09-25T12:55:08.575Z,1007.06
2017-09-25T12:56:08.616Z,1007.08
2017-09-25T12:57:08.614Z,1007.09
2017-09-25T12:58:08.633Z,1007.10
2017-09-25T12:59:08.661Z,1007.14
2017-09-25T13:00:08.696Z,1007.06
2017-09-25T13:01:08.769Z,1007.10
2017-09-25T13:02:08.748Z,1007.07
2017-09-25T13:03:08.775Z,1007.07
2017-09-25T13:04:08.769Z,1007.07
2017-09-25T13:05:08.823Z,1007.01
2017-09-25T13:06:08.819Z,1007.08
2017-09-25T13:07:08.854Z,1007.03
2017-09-25T13:08:08.863Z,1007.02
2017-09-25T13:09:08.886Z,1006.99
2017-09-25T13:10:08.958Z,1006.97
2017-09-25T13:11:08.929Z,1007.00
2017-09-25T13:12:08.954Z,1007.01
2017-09-25T13:13:08.978Z,1007.01
2017-09-25T13:14:09.017Z,1007.01
2017-09-25T13:15:09.058Z,1007.01
2017-09-25T13:16:09.064Z,1007.01
2017-09-25T13:17:09.071Z,1007.06
2017-09-25T13:18:09.085Z,1007.02
2017-09-25T13:19:09.111Z,1007.02
2017-09-25T13:20:09.130Z,1007.02
2017-09-25T13:21:09.164Z,1007.01
2017-09-25T13:22:09.207Z,1007.00
2017-09-25T13:23:09.197Z,1006.97
2017-09-25T13:24:09.226Z,1006.99
2017-09-25T13:25:09.244Z,1006.97
2017-09-25T13:26:09.264Z,1006.98
2017-09-25T13:27:09.295Z,1007.00
2017-09-25T13:28:09.327Z,1007.04
2017-09-25T13:29:09.340Z,1006.98
2017-09-25T13:30:09.366Z,1006.96
2017-09-25T13:31:09.387Z,1006.96
2017-09-25T13:32:09.420Z,1006.95
2017-09-25T13:33:09.431Z,1006.92
2017-09-25T13:34:09.467Z,1006.95
2017-09-25T13:35:09.479Z,1006.93
2017-09-25T13:36:09.493Z,1006.91
2017-09-25T13:37:09.530Z,1006.89
2017-09-25T13:38:09.539Z,1006.90
2017-09-25T13:39:09.563Z,1006.87
2017-09-25T13:40:09.586Z,1006.89
2017-09-25T13:41:09.606Z,1006.90
2017-09-25T13:42:09.635Z,1006.94
2017-09-25T13:43:09.655Z,1006.91
2017-09-25T13:44:09.666Z,1006.94
2017-09-25T13:45:09.701Z,1006.98
2017-09-25T13:46:09.719Z,1007.01
2017-09-25T13:47:09.768Z,1007.01
2017-09-25T13:48:09.761Z,1007.06
2017-09-25T13:49:09.781Z,1007.06
2017-09-25T13:50:09.809Z,1007.07
2017-09-25T13:51:09.832Z,1007.05
2017-09-25T13:52:09.862Z,1007.00
2017-09-25T13:53:09.886Z,1007.03
2017-09-25T13:54:09.899Z,1007.00
2017-09-25T13:55:09.940Z,1007.00
2017-09-25T13:56:09.944Z,1006.94
2017-09-25T13:57:09.989Z,1006.90
2017-09-25T13:58:09.986Z,1006.88
2017-09-25T14:02:21.127Z,1006.82
2017-09-25T14:03:14.189Z,1006.87
2017-09-25T14:05:07.283Z,1006.92
2017-09-25T14:06:07.264Z,1006.93
2017-09-25T14:08:00.323Z,1007.04
2017-09-25T14:09:00.296Z,1007.01
2017-09-25T14:10:53.334Z,1007.02
2017-09-25T14:11:53.345Z,1007.00
2017-09-25T14:13:46.405Z,1006.94
2017-09-25T14:14:46.392Z,1006.95
2017-09-25T14:16:40.450Z,1006.96
2017-09-25T14:17:40.527Z,1006.95
2017-09-25T14:19:33.506Z,1006.88
2017-09-25T14:20:33.474Z,1006.84
2017-09-25T14:22:26.495Z,1006.79
2017-09-25T14:23:26.510Z,1006.80
2017-09-25T14:25:19.580Z,1006.81
2017-09-25T14:26:19.548Z,1006.80
2017-09-25T14:28:12.572Z,1006.82
2017-09-25T14:29:12.609Z,1006.87
2017-09-25T14:31:05.644Z,1006.85
2017-09-25T14:32:05.625Z,1006.79
2017-09-25T14:33:58.665Z,1006.84
2017-09-25T14:34:58.689Z,1006.82
2017-09-25T14:36:51.746Z,1006.79
2017-09-25T14:37:51.722Z,1006.80
2017-09-25T14:39:45.638Z,1006.79
2017-09-25T14:40:45.630Z,1006.81
2017-09-25T14:42:38.649Z,1006.80
2017-09-25T14:43:38.653Z,1006.78
2017-09-25T14:45:31.741Z,1006.81
2017-09-25T14:46:31.713Z,1006.80
2017-09-25T14:48:24.772Z,1006.77
2017-09-25T14:49:24.749Z,1006.75
2017-09-25T14:51:18.663Z,1006.77
2017-09-25T14:52:18.633Z,1006.79
2017-09-25T14:54:11.662Z,1006.82
2017-09-25T14:55:11.693Z,1006.84
2017-09-25T14:57:04.774Z,1006.89
2017-09-25T14:58:04.745Z,1006.91
2017-09-25T14:59:58.310Z,1006.91
2017-09-25T15:00:58.295Z,1006.92
2017-09-25T15:02:51.349Z,1006.93
2017-09-25T15:03:51.346Z,1006.91
2017-09-25T15:05:44.869Z,1006.90
2017-09-25T15:06:44.398Z,1006.86
2017-09-25T15:08:37.419Z,1006.85
2017-09-25T15:09:37.446Z,1006.86
2017-09-25T15:11:30.481Z,1006.86
2017-09-25T15:12:30.470Z,1006.87
2017-09-25T15:14:23.495Z,1006.89
2017-09-25T15:15:23.519Z,1006.92
2017-09-25T15:17:16.563Z,1006.91
2017-09-25T15:18:16.548Z,1006.94
2017-09-25T15:20:09.704Z,1006.88
2017-09-25T15:21:09.587Z,1006.88
2017-09-25T15:23:02.641Z,1006.80